createdAt,value
2019-02-20T00:01:26.303Z,82.70
2019-02-20T00:03:58.833Z,80.30
2019-02-20T00:06:32.279Z,80.40
2019-02-20T00:09:04.681Z,81.60
2019-02-20T00:11:41.659Z,82.70
2019-02-20T00:14:13.307Z,85.70
2019-02-20T00:16:43.543Z,86.20
2019-02-20T00:19:21.667Z,87.80
2019-02-20T00:21:53.791Z,87.50
2019-02-20T00:24:24.511Z,86.10
2019-02-20T00:26:56.442Z,84.20
2019-02-20T00:29:30.151Z,83.90
2019-02-20T00:32:02.533Z,84.50
2019-02-20T00:34:35.168Z,83.60
2019-02-20T00:37:08.940Z,83.90
2019-02-20T00:39:44.558Z,81.10
2019-02-20T00:42:17.674Z,85.50
2019-02-20T00:45:06.307Z,86.20
2019-02-20T00:47:57.886Z,85.40
2019-02-20T00:50:30.950Z,86.80
2019-02-20T00:53:22.968Z,86.30
2019-02-20T00:55:53.098Z,86.00
2019-02-20T00:58:26.469Z,84.70
2019-02-20T01:01:04.823Z,87.70
2019-02-20T01:03:38.303Z,89.50
2019-02-20T01:06:15.469Z,89.10
2019-02-20T01:08:50.597Z,91.10
2019-02-20T01:11:21.911Z,90.00
2019-02-20T01:13:54.142Z,86.40
2019-02-20T01:16:26.959Z,86.00
2019-02-20T01:18:58.187Z,89.30
2019-02-20T01:21:33.559Z,90.50
2019-02-20T01:24:03.770Z,90.20
2019-02-20T01:26:35.312Z,88.80
2019-02-20T01:29:06.205Z,85.20
2019-02-20T01:31:36.446Z,81.60
2019-02-20T01:34:11.205Z,78.00
2019-02-20T01:36:44.407Z,75.20
2019-02-20T01:39:18.939Z,75.00
2019-02-20T01:41:49.147Z,74.80
2019-02-20T01:44:22.264Z,73.50
2019-02-20T01:47:06.176Z,70.80
2019-02-20T01:49:38.191Z,69.60
2019-02-20T01:52:15.237Z,71.10
2019-02-20T01:54:47.744Z,70.90
2019-02-20T01:57:19.453Z,69.40
2019-02-20T02:00:13.044Z,70.90
2019-02-20T02:02:43.155Z,72.40
2019-02-20T02:05:15.869Z,73.70
2019-02-20T02:07:45.203Z,73.10
2019-02-20T02:10:28.496Z,73.90
2019-02-20T02:13:00.389Z,74.70
2019-02-20T02:15:34.871Z,74.20
2019-02-20T02:18:07.794Z,75.70
2019-02-20T02:20:40.578Z,75.30
2019-02-20T02:23:19.670Z,77.10
2019-02-20T02:25:48.527Z,76.20
2019-02-20T02:28:22.589Z,74.20
2019-02-20T02:30:53.648Z,75.50
2019-02-20T02:33:27.169Z,77.10
2019-02-20T02:36:00.273Z,76.20
2019-02-20T02:38:32.903Z,77.80
2019-02-20T02:41:05.609Z,77.20
2019-02-20T02:43:39.195Z,73.40
2019-02-20T02:46:10.137Z,74.10
2019-02-20T02:48:43.588Z,74.00
2019-02-20T02:51:18.081Z,73.40
2019-02-20T02:53:49.579Z,74.30
2019-02-20T02:56:20.609Z,83.30
2019-02-20T02:58:52.218Z,85.00
2019-02-20T03:01:22.418Z,88.40
2019-02-20T03:03:53.225Z,78.10
2019-02-20T03:06:28.017Z,78.30
2019-02-20T03:09:00.709Z,87.70
2019-02-20T03:11:31.477Z,78.60
2019-02-20T03:14:03.447Z,79.60
2019-02-20T03:16:38.753Z,81.80
2019-02-20T03:19:11.801Z,81.90
2019-02-20T03:21:45.283Z,83.00
2019-02-20T03:24:21.792Z,83.90
2019-02-20T03:26:53.263Z,83.40
2019-02-20T03:29:26.221Z,83.10
2019-02-20T03:31:59.194Z,83.10
2019-02-20T03:34:37.364Z,83.40
2019-02-20T03:37:08.721Z,83.70
2019-02-20T03:39:40.151Z,83.40
2019-02-20T03:42:13.339Z,85.50
2019-02-20T03:44:46.671Z,84.20
2019-02-20T03:47:17.570Z,85.50
2019-02-20T03:49:47.789Z,84.40
2019-02-20T03:52:17.940Z,82.60
2019-02-20T03:54:48.174Z,82.10
2019-02-20T03:57:21.832Z,80.50
2019-02-20T03:59:54.446Z,77.50
2019-02-20T04:02:26.779Z,78.00
2019-02-20T04:04:58.906Z,78.80
2019-02-20T04:07:29.968Z,78.80
2019-02-20T04:10:00.486Z,74.50
2019-02-20T04:12:32.246Z,76.60
2019-02-20T04:15:04.666Z,75.80
2019-02-20T04:17:37.925Z,74.00
2019-02-20T04:20:08.178Z,75.90
2019-02-20T04:22:40.678Z,74.30
2019-02-20T04:25:16.400Z,70.40
2019-02-20T04:27:48.458Z,72.10
2019-02-20T04:30:22.434Z,74.40
2019-02-20T04:32:56.144Z,75.50
2019-02-20T04:35:28.315Z,75.00
2019-02-20T04:38:00.416Z,71.20
2019-02-20T04:40:30.618Z,69.50
2019-02-20T04:43:07.241Z,68.30
2019-02-20T04:45:37.431Z,67.10
2019-02-20T04:48:15.138Z,67.80
2019-02-20T04:50:48.770Z,72.00
2019-02-20T04:53:21.303Z,64.60
2019-02-20T04:55:53.474Z,65.60
2019-02-20T04:58:27.450Z,64.90
2019-02-20T05:00:59.293Z,64.20
2019-02-20T05:03:31.037Z,66.10
2019-02-20T05:06:01.330Z,68.30
2019-02-20T05:08:31.978Z,69.50
2019-02-20T05:18:01.049Z,67.40
2019-02-20T05:20:32.414Z,70.00
2019-02-20T05:25:40.525Z,71.30
2019-02-20T05:28:13.214Z,71.50
2019-02-20T05:30:43.414Z,71.60
2019-02-20T05:33:20.164Z,71.10
2019-02-20T05:35:50.665Z,71.70
2019-02-20T05:38:20.832Z,71.60
2019-02-20T05:40:51.012Z,72.00
2019-02-20T05:43:21.851Z,71.20
2019-02-20T05:45:55.427Z,71.80
2019-02-20T05:48:26.590Z,71.40
2019-02-20T05:50:57.657Z,71.40
2019-02-20T05:53:37.090Z,71.10
2019-02-20T05:56:07.836Z,70.20
2019-02-20T05:58:40.935Z,69.90
2019-02-20T06:01:11.463Z,69.00
2019-02-20T06:03:46.304Z,68.80
2019-02-20T06:06:20.876Z,68.30
2019-02-20T06:08:54.673Z,66.00
2019-02-20T06:11:26.971Z,65.70
2019-02-20T06:14:01.495Z,67.00
2019-02-20T06:16:34.357Z,68.00
2019-02-20T06:19:04.871Z,66.30
2019-02-20T06:21:36.273Z,68.40
2019-02-20T06:24:06.436Z,70.00
2019-02-20T06:26:36.642Z,73.10
2019-02-20T06:29:09.529Z,74.70
2019-02-20T06:31:41.240Z,73.80
2019-02-20T06:34:12.350Z,73.20
2019-02-20T06:36:42.463Z,73.90
2019-02-20T06:39:13.749Z,70.00
2019-02-20T06:41:43.884Z,69.90
2019-02-20T06:44:14.048Z,70.00
2019-02-20T06:46:44.189Z,69.30
2019-02-20T06:49:14.342Z,70.80
2019-02-20T06:51:44.693Z,73.00
2019-02-20T06:54:16.250Z,73.60
2019-02-20T06:56:46.995Z,77.10
2019-02-20T06:59:17.324Z,78.50
2019-02-20T07:01:48.356Z,79.60
2019-02-20T07:04:18.635Z,81.00
2019-02-20T07:07:19.884Z,78.20
2019-02-20T07:10:17.809Z,80.30
2019-02-20T07:13:15.126Z,82.90
2019-02-20T07:16:08.802Z,81.90
2019-02-20T07:19:12.221Z,77.90
2019-02-20T07:22:21.039Z,76.60
2019-02-20T07:25:41.017Z,73.80
2019-02-20T07:29:19.721Z,71.50
2019-02-20T07:31:49.884Z,71.10
2019-02-20T07:34:21.172Z,68.90
2019-02-20T07:36:51.285Z,67.30
2019-02-20T07:39:21.414Z,65.70
2019-02-20T07:41:51.573Z,66.40
2019-02-20T07:44:21.717Z,66.30
2019-02-20T07:46:51.873Z,65.60
2019-02-20T07:49:21.992Z,64.30
2019-02-20T07:51:52.595Z,65.60
2019-02-20T07:54:22.762Z,65.80
2019-02-20T07:56:52.878Z,67.60
2019-02-20T07:59:23.811Z,66.50
2019-02-20T08:01:53.943Z,68.90
2019-02-20T08:04:24.064Z,69.90
2019-02-20T08:06:54.186Z,74.00
2019-02-20T08:09:24.321Z,74.60
2019-02-20T08:11:54.838Z,72.40
2019-02-20T08:14:24.999Z,70.20
2019-02-20T08:16:55.123Z,66.30
2019-02-20T08:19:25.276Z,64.60
2019-02-20T08:21:55.458Z,63.10
2019-02-20T08:24:25.585Z,62.60
2019-02-20T08:26:55.704Z,61.60
2019-02-20T08:29:25.840Z,60.20
2019-02-20T08:31:55.952Z,59.80
2019-02-20T08:34:26.847Z,57.40
2019-02-20T08:36:57.427Z,57.90
2019-02-20T08:39:27.649Z,56.00
2019-02-20T08:41:57.810Z,57.20
2019-02-20T08:44:27.999Z,57.70
2019-02-20T08:46:58.185Z,57.40
2019-02-20T08:49:28.320Z,57.90
2019-02-20T08:51:58.502Z,55.90
2019-02-20T08:54:29.055Z,55.30
2019-02-20T08:56:59.238Z,56.70
2019-02-20T08:59:29.389Z,58.00
2019-02-20T09:01:59.521Z,55.80
2019-02-20T09:04:31.326Z,55.60
2019-02-20T09:07:01.863Z,54.40
2019-02-20T09:09:31.975Z,55.40
2019-02-20T09:12:02.152Z,55.50
2019-02-20T09:14:32.337Z,55.70
2019-02-20T09:17:02.468Z,56.10
2019-02-20T09:19:32.675Z,56.00
2019-02-20T09:22:03.739Z,55.80
2019-02-20T09:24:33.879Z,56.80
2019-02-20T09:27:03.995Z,58.40
2019-02-20T09:29:34.121Z,60.00
2019-02-20T09:32:04.365Z,60.40
2019-02-20T09:34:34.496Z,62.80
2019-02-20T09:37:04.615Z,65.10
2019-02-20T09:39:38.639Z,65.90
2019-02-20T09:42:13.802Z,64.30
2019-02-20T09:44:46.485Z,63.00
2019-02-20T09:47:22.042Z,64.90
2019-02-20T09:49:52.219Z,65.80
2019-02-20T09:52:22.383Z,66.40
2019-02-20T09:54:52.569Z,62.80
2019-02-20T09:57:22.722Z,61.90
2019-02-20T09:59:52.832Z,62.10
2019-02-20T10:02:23.511Z,59.90
2019-02-20T10:04:53.647Z,57.50
2019-02-20T10:07:23.757Z,59.00
2019-02-20T10:09:53.879Z,57.80
2019-02-20T10:12:24.019Z,59.50
2019-02-20T10:14:54.124Z,60.00
2019-02-20T10:17:25.214Z,57.90
2019-02-20T10:19:56.643Z,58.50
2019-02-20T10:22:26.779Z,58.10
2019-02-20T10:24:56.968Z,57.20
2019-02-20T10:27:27.240Z,56.00
2019-02-20T10:29:57.514Z,55.60
2019-02-20T10:32:27.668Z,52.60
2019-02-20T10:34:57.806Z,49.30
2019-02-20T10:37:28.716Z,43.10
2019-02-20T10:39:58.894Z,38.70
2019-02-20T10:42:29.231Z,37.60
2019-02-20T10:44:59.416Z,35.70
2019-02-20T10:47:31.248Z,36.70
2019-02-20T10:50:01.406Z,37.30
2019-02-20T10:52:32.356Z,37.00
2019-02-20T10:55:02.613Z,36.50
2019-02-20T10:57:32.790Z,37.50
2019-02-20T11:00:02.976Z,33.50
2019-02-20T11:02:33.174Z,32.70
2019-02-20T11:05:03.335Z,33.40
2019-02-20T11:07:33.459Z,33.30
2019-02-20T11:10:03.613Z,37.00
2019-02-20T11:12:34.088Z,38.20
2019-02-20T11:15:05.132Z,37.40
2019-02-20T11:17:37.395Z,35.30
2019-02-20T11:20:08.040Z,35.60
2019-02-20T11:22:38.275Z,34.00
2019-02-20T11:25:09.510Z,30.00
2019-02-20T11:27:39.742Z,30.00
2019-02-20T11:30:13.790Z,28.40
2019-02-20T11:32:43.990Z,27.80
2019-02-20T11:35:14.139Z,27.10
2019-02-20T11:37:44.311Z,27.60
2019-02-20T11:40:15.199Z,27.20
2019-02-20T11:42:45.338Z,26.60
2019-02-20T11:45:16.666Z,26.50
2019-02-20T11:47:46.973Z,26.80
2019-02-20T11:50:18.958Z,26.60
2019-02-20T11:52:49.114Z,24.50
2019-02-20T11:55:19.217Z,23.90
2019-02-20T11:57:49.301Z,23.40
2019-02-20T12:00:19.474Z,23.30
2019-02-20T12:02:49.768Z,23.50
2019-02-20T12:05:19.867Z,23.70
2019-02-20T12:07:50.011Z,23.00
2019-02-20T12:10:20.631Z,23.20
2019-02-20T12:12:50.766Z,22.40
2019-02-20T12:15:21.115Z,21.70
2019-02-20T12:17:51.322Z,22.40
2019-02-20T12:20:21.654Z,22.40
2019-02-20T12:22:51.882Z,22.00
2019-02-20T12:25:22.114Z,21.70
2019-02-20T12:27:52.350Z,22.80
2019-02-20T12:30:22.662Z,22.90
2019-02-20T12:32:52.967Z,23.20
2019-02-20T12:35:23.246Z,22.90
2019-02-20T12:37:53.440Z,22.90
2019-02-20T12:40:24.185Z,22.90
2019-02-20T12:42:54.399Z,23.10
2019-02-20T12:45:24.713Z,22.70
2019-02-20T12:47:55.376Z,22.90
2019-02-20T12:50:25.698Z,23.30
2019-02-20T12:52:55.984Z,23.20
2019-02-20T12:55:26.486Z,23.60
2019-02-20T12:57:57.160Z,23.20
2019-02-20T13:00:27.493Z,23.20
2019-02-20T13:02:57.757Z,23.30
2019-02-20T13:05:27.985Z,22.50
2019-02-20T13:07:58.291Z,22.90
2019-02-20T13:10:28.454Z,21.60
2019-02-20T13:12:58.548Z,22.20
2019-02-20T13:15:29.087Z,23.50
2019-02-20T13:17:59.215Z,23.80
2019-02-20T13:20:29.426Z,23.10
2019-02-20T13:23:00.050Z,22.80
2019-02-20T13:25:30.302Z,22.10
2019-02-20T13:28:00.610Z,22.00
2019-02-20T13:30:30.917Z,21.20
2019-02-20T13:33:02.482Z,20.20
2019-02-20T13:35:33.134Z,20.00
2019-02-20T13:38:03.340Z,19.20
2019-02-20T13:40:33.555Z,20.30
2019-02-20T13:43:05.598Z,20.40
2019-02-20T13:45:36.033Z,20.10
2019-02-20T13:48:06.999Z,19.70
2019-02-20T13:50:37.260Z,19.60
2019-02-20T13:53:08.381Z,19.60
2019-02-20T13:55:38.619Z,20.20
2019-02-20T13:58:08.901Z,19.80
2019-02-20T14:00:39.108Z,19.50
2019-02-20T14:03:09.411Z,19.60
2019-02-20T14:05:39.566Z,18.70
2019-02-20T14:08:09.756Z,18.30
2019-02-20T14:10:39.982Z,18.50
2019-02-20T14:13:11.750Z,18.20
2019-02-20T14:15:41.995Z,17.20
2019-02-20T14:18:12.704Z,17.00
2019-02-20T14:20:42.894Z,17.20
2019-02-20T14:23:13.057Z,16.50
2019-02-20T14:25:44.432Z,16.80
2019-02-20T14:28:16.170Z,15.80
2019-02-20T14:30:46.756Z,14.50
2019-02-20T14:33:19.288Z,13.20
2019-02-20T14:35:49.403Z,12.20
2019-02-20T14:38:19.981Z,11.80
2019-02-20T14:40:52.851Z,11.50
2019-02-20T14:43:26.406Z,11.50
2019-02-20T14:45:57.912Z,13.00
2019-02-20T14:48:28.072Z,14.10
2019-02-20T14:51:00.032Z,15.10
2019-02-20T14:53:32.789Z,15.20
2019-02-20T14:56:03.029Z,15.60
2019-02-20T14:58:33.369Z,16.20
2019-02-20T15:01:03.806Z,16.70
2019-02-20T15:03:34.056Z,16.70
2019-02-20T15:06:04.292Z,16.30
2019-02-20T15:08:34.547Z,16.80
2019-02-20T15:11:05.340Z,16.80
2019-02-20T15:13:36.400Z,17.70
2019-02-20T15:16:09.139Z,18.10
2019-02-20T15:18:39.765Z,18.50
2019-02-20T15:21:10.009Z,18.50
2019-02-20T15:23:40.150Z,18.50
2019-02-20T15:26:10.917Z,19.00
2019-02-20T15:28:41.809Z,18.70
2019-02-20T15:31:13.180Z,18.90
2019-02-20T15:33:43.454Z,18.90
2019-02-20T15:36:15.554Z,18.90
2019-02-20T15:38:47.962Z,18.40
2019-02-20T15:41:19.082Z,18.90
2019-02-20T15:43:51.487Z,19.30
2019-02-20T15:46:21.754Z,19.00
2019-02-20T15:48:51.936Z,18.60
2019-02-20T15:51:24.400Z,19.40
2019-02-20T15:53:56.901Z,19.50
2019-02-20T15:56:28.519Z,19.70
2019-02-20T15:58:58.687Z,20.70
2019-02-20T16:01:28.885Z,20.90
2019-02-20T16:04:00.051Z,21.90
2019-02-20T16:06:31.331Z,21.90
2019-02-20T16:09:09.464Z,22.10
2019-02-20T16:11:36.209Z,23.10
2019-02-20T16:14:07.584Z,23.00
2019-02-20T16:16:40.627Z,24.80
2019-02-20T16:19:10.293Z,25.10
2019-02-20T16:21:42.828Z,26.90
2019-02-20T16:24:13.339Z,29.10
2019-02-20T16:26:43.534Z,30.60
2019-02-20T16:29:14.055Z,30.50
2019-02-20T16:31:45.992Z,31.50
2019-02-20T16:34:18.607Z,32.90
2019-02-20T16:36:49.667Z,34.90
2019-02-20T16:39:25.193Z,37.00
2019-02-20T16:41:57.511Z,37.20
2019-02-20T16:44:29.839Z,39.40
2019-02-20T16:47:02.943Z,40.30
2019-02-20T16:49:34.867Z,40.90
2019-02-20T16:52:05.192Z,43.30
2019-02-20T16:54:35.451Z,44.30
2019-02-20T16:57:06.081Z,46.30
2019-02-20T17:00:21.628Z,44.80
2019-02-20T17:02:54.501Z,44.70
2019-02-20T17:05:24.697Z,47.60
2019-02-20T17:07:55.616Z,49.30
2019-02-20T17:10:25.954Z,48.00
2019-02-20T17:12:56.345Z,48.40
2019-02-20T17:15:27.762Z,50.00
2019-02-20T17:17:57.966Z,51.50
2019-02-20T17:20:30.530Z,52.80
2019-02-20T17:23:00.767Z,51.30
2019-02-20T17:25:31.283Z,52.90
2019-02-20T17:28:05.706Z,54.00
2019-02-20T17:30:33.316Z,54.10
2019-02-20T17:33:04.585Z,55.10
2019-02-20T17:35:34.824Z,52.00
2019-02-20T17:38:05.333Z,50.70
2019-02-20T17:40:36.843Z,54.70
2019-02-20T17:43:07.072Z,54.10
2019-02-20T17:45:37.299Z,55.10
2019-02-20T17:48:08.428Z,55.10
2019-02-20T17:50:38.690Z,54.10
2019-02-20T17:53:08.995Z,54.60
2019-02-20T17:55:39.725Z,54.10
2019-02-20T17:58:15.260Z,55.00
2019-02-20T18:00:42.273Z,52.90
2019-02-20T18:03:12.532Z,51.20
2019-02-20T18:05:43.060Z,55.40
2019-02-20T18:08:14.205Z,55.60
2019-02-20T18:10:45.873Z,58.30
2019-02-20T18:13:16.187Z,60.40
2019-02-20T18:15:47.609Z,58.70
2019-02-20T18:18:18.220Z,57.30
2019-02-20T18:20:48.697Z,57.50
2019-02-20T18:23:21.559Z,57.70
2019-02-20T18:25:52.610Z,59.40
2019-02-20T18:28:24.751Z,59.50
2019-02-20T18:30:54.747Z,60.80
2019-02-20T18:33:25.950Z,61.00
2019-02-20T18:35:58.806Z,62.40
2019-02-20T18:38:31.846Z,61.10
2019-02-20T18:41:05.316Z,58.40
2019-02-20T18:43:35.779Z,58.70
2019-02-20T18:46:07.686Z,58.50
2019-02-20T18:48:37.909Z,58.80
2019-02-20T18:51:09.321Z,57.60
2019-02-20T18:53:40.620Z,59.60
2019-02-20T18:56:11.169Z,62.30
2019-02-20T18:58:41.310Z,62.90
2019-02-20T19:01:13.355Z,64.50
2019-02-20T19:03:46.492Z,66.90
2019-02-20T19:06:17.510Z,67.30
2019-02-20T19:08:56.346Z,66.10
2019-02-20T19:12:07.758Z,65.40
2019-02-20T19:15:34.856Z,62.20
2019-02-20T19:19:12.287Z,60.00
2019-02-20T19:22:15.698Z,68.90
2019-02-20T19:25:29.506Z,71.10
2019-02-20T19:28:44.303Z,70.50
2019-02-20T19:31:37.442Z,73.40
2019-02-20T19:34:56.117Z,73.20
2019-02-20T19:38:16.347Z,75.20
2019-02-20T19:41:42.077Z,72.40
2019-02-20T19:45:02.180Z,71.00
2019-02-20T19:48:21.546Z,72.30
2019-02-20T19:51:07.405Z,74.30
2019-02-20T19:54:36.794Z,73.40
2019-02-20T19:57:51.795Z,74.70
2019-02-20T20:01:27.919Z,78.10
2019-02-20T20:04:37.368Z,74.90
2019-02-20T20:07:53.929Z,71.40
2019-02-20T20:11:21.353Z,67.60
2019-02-20T20:14:26.979Z,70.90
2019-02-20T20:17:36.856Z,77.10
2019-02-20T20:20:16.264Z,74.00
2019-02-20T20:23:29.856Z,74.70
2019-02-20T20:26:25.993Z,77.70
2019-02-20T20:29:49.452Z,79.80
2019-02-20T20:32:55.227Z,77.60
2019-02-20T20:35:42.935Z,79.40
2019-02-20T20:38:39.086Z,77.60
2019-02-20T20:41:47.435Z,79.20
2019-02-20T20:44:31.979Z,79.90
2019-02-20T20:47:43.967Z,79.40
2019-02-20T20:50:49.864Z,80.00
2019-02-20T20:53:51.510Z,76.10
2019-02-20T20:57:07.412Z,73.30
2019-02-20T21:00:10.135Z,73.00
2019-02-20T21:02:55.625Z,73.00
2019-02-20T21:05:56.369Z,69.30
2019-02-20T21:08:58.512Z,68.70
2019-02-20T21:12:15.464Z,65.80
2019-02-20T21:15:36.547Z,65.80
2019-02-20T21:18:23.968Z,65.40
2019-02-20T21:21:25.163Z,63.00
2019-02-20T21:24:26.982Z,65.00
2019-02-20T21:27:32.044Z,65.20
2019-02-20T21:30:43.544Z,64.80
2019-02-20T21:34:06.066Z,64.00
2019-02-20T21:37:15.839Z,65.70
2019-02-20T21:40:26.584Z,66.40
2019-02-20T21:43:34.683Z,70.60
2019-02-20T21:46:29.899Z,75.90
2019-02-20T21:49:32.292Z,78.00
2019-02-20T21:53:01.387Z,78.50
2019-02-20T21:55:57.668Z,79.90
2019-02-20T21:58:45.115Z,81.90
2019-02-20T22:01:37.296Z,76.10
2019-02-20T22:04:43.410Z,73.30
2019-02-20T22:07:51.186Z,73.60
2019-02-20T22:11:11.221Z,74.40
2019-02-20T22:14:45.048Z,76.30
2019-02-20T22:17:46.724Z,79.50
2019-02-20T22:21:08.003Z,82.50
2019-02-20T22:23:55.161Z,82.70
2019-02-20T22:27:11.241Z,80.10
2019-02-20T22:30:43.570Z,75.50
2019-02-20T22:33:44.824Z,76.80
2019-02-20T22:36:51.011Z,82.50
2019-02-20T22:39:42.556Z,85.60
2019-02-20T22:42:43.184Z,85.20
2019-02-20T22:45:46.352Z,85.20
2019-02-20T22:49:03.378Z,80.00
2019-02-20T22:52:16.487Z,76.60
2019-02-20T22:55:32.477Z,76.30
2019-02-20T22:58:49.999Z,81.10
2019-02-20T23:01:59.944Z,87.50
2019-02-20T23:05:03.678Z,88.00
2019-02-20T23:07:47.818Z,89.10
2019-02-20T23:11:07.146Z,89.20
2019-02-20T23:14:19.519Z,84.80
2019-02-20T23:16:51.441Z,85.00
2019-02-20T23:19:24.061Z,85.20
2019-02-20T23:21:54.362Z,86.10
2019-02-20T23:24:24.714Z,88.30
2019-02-20T23:26:56.360Z,87.80
2019-02-20T23:29:26.499Z,86.10
2019-02-20T23:32:02.886Z,83.40
2019-02-20T23:34:32.994Z,84.00
2019-02-20T23:37:05.803Z,85.10
2019-02-20T23:39:38.182Z,83.30
2019-02-20T23:42:15.258Z,83.70
2019-02-20T23:44:45.492Z,86.60
2019-02-20T23:47:15.959Z,88.90
2019-02-20T23:49:47.394Z,89.50
2019-02-20T23:52:17.722Z,90.90
2019-02-20T23:54:50.630Z,90.10
2019-02-20T23:57:22.878Z,90.30
2019-02-20T23:59:53.523Z,90.90
